createdAt,value
2022-12-26T00:07:55.984Z,9.8
2022-12-26T00:17:58.767Z,9.8
2022-12-26T00:28:00.947Z,9.8
2022-12-26T00:38:02.696Z,9.7
2022-12-26T00:48:05.185Z,9.7
2022-12-26T00:58:24.729Z,9.8
2022-12-26T01:08:20.776Z,9.7
2022-12-26T01:18:11.299Z,9.7
2022-12-26T01:28:13.667Z,9.6
2022-12-26T01:38:16.004Z,9.6
2022-12-26T01:48:18.532Z,9.6
2022-12-26T02:08:22.859Z,9.6
2022-12-26T02:18:25.035Z,9.6
2022-12-26T02:28:27.462Z,9.5
2022-12-26T02:38:29.890Z,9.5
2022-12-26T02:48:32.390Z,9.4
2022-12-26T02:58:34.870Z,9.4
2022-12-26T03:08:36.948Z,9.2
2022-12-26T03:18:57.348Z,9.2
2022-12-26T03:28:41.147Z,9.2
2022-12-26T03:38:43.661Z,9.2
2022-12-26T03:48:45.721Z,9.2
2022-12-26T03:58:47.564Z,9.2
2022-12-26T04:08:50.017Z,9.1
2022-12-26T04:18:52.383Z,9.1
2022-12-26T04:28:54.172Z,9.2
2022-12-26T04:38:56.253Z,9.2
2022-12-26T04:48:58.882Z,9
2022-12-26T04:59:01.095Z,8.9
2022-12-26T05:09:02.974Z,9.1
2022-12-26T05:19:04.959Z,9.1
2022-12-26T05:29:06.966Z,9
2022-12-26T05:39:09.416Z,9
2022-12-26T05:49:11.651Z,9
2022-12-26T05:59:13.798Z,9
2022-12-26T06:09:15.579Z,8.9
2022-12-26T06:19:17.935Z,8.9
2022-12-26T06:29:19.697Z,8.8
2022-12-26T06:39:21.430Z,8.6
2022-12-26T06:49:27.419Z,8.7
2022-12-26T06:59:25.517Z,8.7
2022-12-26T07:19:29.923Z,8.8
2022-12-26T07:29:32.537Z,9
2022-12-26T07:39:34.328Z,9.1
2022-12-26T07:49:36.207Z,9.2
2022-12-26T07:59:38.512Z,9.4
2022-12-26T08:09:40.476Z,9.4
2022-12-26T08:19:42.706Z,9.6
2022-12-26T08:29:45.091Z,9.6
2022-12-26T08:39:47.378Z,9.6
2022-12-26T08:49:49.547Z,9.6
2022-12-26T08:59:59.521Z,9.6
2022-12-26T09:10:01.643Z,9.7
2022-12-26T09:20:04.184Z,9.6
2022-12-26T09:30:06.152Z,9.8
2022-12-26T09:40:08.250Z,9.9
2022-12-26T09:50:10.190Z,10
2022-12-26T10:00:12.265Z,10
2022-12-26T10:10:14.755Z,10
2022-12-26T10:20:17.278Z,10
2022-12-26T10:30:19.582Z,10
2022-12-26T10:40:21.499Z,10.1
2022-12-26T10:50:27.551Z,10.1
2022-12-26T11:00:26.438Z,10
2022-12-26T11:10:28.277Z,10.1
2022-12-26T11:20:30.329Z,10
2022-12-26T11:30:32.253Z,10
2022-12-26T11:40:34.452Z,10.1
2022-12-26T11:50:36.674Z,10
2022-12-26T12:00:38.843Z,10.5
2022-12-26T12:10:40.877Z,10.4
2022-12-26T12:20:45.332Z,10.5
2022-12-26T12:30:44.477Z,10.2
2022-12-26T12:40:46.265Z,8.7
2022-12-26T12:50:51.762Z,8.2
2022-12-26T13:00:50.744Z,8
2022-12-26T13:10:53.092Z,7.8
2022-12-26T13:30:56.912Z,7.7
2022-12-26T13:40:58.617Z,7.5
2022-12-26T13:51:01.246Z,7.4
2022-12-26T14:01:03.570Z,7.1
2022-12-26T14:11:06.006Z,6.9
2022-12-26T14:21:08.462Z,6.7
2022-12-26T14:31:11.117Z,6.5
2022-12-26T14:41:13.181Z,6.4
2022-12-26T14:51:15.083Z,6.2
2022-12-26T15:01:17.482Z,6.1
2022-12-26T15:11:19.357Z,6.1
2022-12-26T15:21:21.360Z,6
2022-12-26T15:31:23.269Z,5.7
2022-12-26T15:41:25.614Z,5.6
2022-12-26T15:51:27.590Z,5.3
2022-12-26T16:01:29.810Z,5.1
2022-12-26T16:11:32.232Z,4.8
2022-12-26T16:21:34.724Z,4.6
2022-12-26T16:31:37.372Z,4.8
2022-12-26T16:41:39.624Z,4.7
2022-12-26T16:51:42.045Z,4.7
2022-12-26T17:01:44.034Z,4.8
2022-12-26T17:11:45.910Z,4.7
2022-12-26T17:21:47.647Z,4.6
2022-12-26T17:31:49.595Z,4.6
2022-12-26T17:41:51.794Z,4.4
2022-12-26T17:52:00.007Z,4.2
2022-12-26T18:01:56.603Z,4
2022-12-26T18:11:58.819Z,3.8
2022-12-26T18:22:00.729Z,3.9
2022-12-26T18:32:03.411Z,3.8
2022-12-26T18:42:05.347Z,3.9
2022-12-26T18:52:07.339Z,3.6
2022-12-26T19:02:09.209Z,3.6
2022-12-26T19:12:11.153Z,3.4
2022-12-26T19:22:13.328Z,3.3
2022-12-26T19:32:15.512Z,3.2
2022-12-26T19:42:17.512Z,3.2
2022-12-26T19:52:19.391Z,3.2
2022-12-26T20:02:21.617Z,3
2022-12-26T20:12:23.364Z,3
2022-12-26T20:22:25.434Z,3.1
2022-12-26T20:32:27.360Z,3
2022-12-26T20:42:29.805Z,2.9
2022-12-26T20:52:32.192Z,2.9
2022-12-26T21:02:34.571Z,2.9
2022-12-26T21:12:37.106Z,2.7
2022-12-26T21:22:39.257Z,2.7
2022-12-26T21:32:41.467Z,3
2022-12-26T21:42:43.347Z,3.1
2022-12-26T21:52:45.530Z,3.3
2022-12-26T22:02:47.599Z,3.2
2022-12-26T22:12:49.917Z,3.1
2022-12-26T22:22:52.219Z,3.1
2022-12-26T22:32:54.695Z,2.9
2022-12-26T22:42:56.985Z,2.9
2022-12-26T22:52:59.076Z,3
2022-12-26T23:03:01.839Z,3.2
2022-12-26T23:13:04.012Z,3.1
2022-12-26T23:23:06.644Z,3.2
2022-12-26T23:33:09.240Z,3.2
2022-12-26T23:43:11.108Z,3.2
2022-12-26T23:53:13.262Z,3.2
